createdAt,value
2019-03-06T00:00:43.976Z,99.99
2019-03-06T00:01:43.969Z,99.99
2019-03-06T00:02:43.958Z,99.99
2019-03-06T00:03:43.953Z,99.99
2019-03-06T00:04:43.941Z,99.99
2019-03-06T00:05:43.945Z,99.99
2019-03-06T00:06:43.925Z,99.99
2019-03-06T00:07:43.920Z,99.99
2019-03-06T00:08:43.908Z,99.99
2019-03-06T00:09:43.907Z,99.99
2019-03-06T00:10:43.896Z,99.99
2019-03-06T00:11:43.885Z,99.99
2019-03-06T00:12:43.873Z,99.99
2019-03-06T00:13:43.868Z,99.99
2019-03-06T00:14:43.857Z,99.99
2019-03-06T00:15:43.851Z,99.99
2019-03-06T00:16:43.843Z,99.99
2019-03-06T00:17:43.834Z,99.99
2019-03-06T00:18:43.823Z,99.99
2019-03-06T00:19:43.817Z,99.99
2019-03-06T00:20:43.806Z,99.99
2019-03-06T00:21:43.800Z,99.99
2019-03-06T00:22:43.792Z,99.99
2019-03-06T00:23:43.786Z,99.99
2019-03-06T00:24:43.775Z,99.99
2019-03-06T00:25:43.764Z,99.99
2019-03-06T00:26:43.758Z,99.99
2019-03-06T00:27:43.750Z,99.99
2019-03-06T00:28:43.741Z,99.99
2019-03-06T00:29:43.730Z,99.99
2019-03-06T00:30:43.725Z,99.99
2019-03-06T00:31:43.717Z,99.99
2019-03-06T00:32:43.707Z,99.99
2019-03-06T00:33:43.704Z,99.99
2019-03-06T00:34:43.691Z,99.99
2019-03-06T00:35:43.681Z,99.99
2019-03-06T00:36:43.676Z,99.99
2019-03-06T00:37:43.664Z,99.99
2019-03-06T00:38:43.667Z,99.99
2019-03-06T00:39:43.647Z,99.99
2019-03-06T00:40:43.642Z,99.99
2019-03-06T00:41:43.629Z,99.99
2019-03-06T00:42:43.633Z,99.99
2019-03-06T00:43:43.613Z,99.99
2019-03-06T00:44:43.606Z,99.99
2019-03-06T00:45:43.595Z,99.99
2019-03-06T00:46:43.590Z,99.99
2019-03-06T00:47:43.580Z,99.99
2019-03-06T00:48:43.572Z,99.99
2019-03-06T00:49:43.562Z,99.99
2019-03-06T00:50:43.557Z,99.99
2019-03-06T00:51:43.548Z,99.99
2019-03-06T00:52:43.539Z,99.99
2019-03-06T00:53:43.529Z,99.99
2019-03-06T00:54:43.522Z,99.99
2019-03-06T00:55:43.526Z,99.99
2019-03-06T00:56:43.506Z,99.99
2019-03-06T00:57:43.495Z,99.99
2019-03-06T00:58:43.490Z,99.99
2019-03-06T00:59:43.478Z,99.99
2019-03-06T01:00:43.471Z,99.99
2019-03-06T01:01:43.462Z,99.99
2019-03-06T01:02:43.455Z,99.99
2019-03-06T01:03:43.453Z,99.99
2019-03-06T01:04:43.438Z,99.99
2019-03-06T01:05:43.429Z,99.99
2019-03-06T01:06:43.425Z,99.99
2019-03-06T01:07:43.412Z,99.99
2019-03-06T01:08:43.404Z,99.99
2019-03-06T01:09:43.402Z,99.99
2019-03-06T01:10:43.420Z,99.99
2019-03-06T01:11:43.377Z,99.99
2019-03-06T01:12:43.371Z,99.99
2019-03-06T01:13:43.360Z,99.99
2019-03-06T01:14:43.354Z,99.99
2019-03-06T01:15:43.344Z,99.99
2019-03-06T01:16:43.337Z,99.99
2019-03-06T01:17:43.327Z,99.99
2019-03-06T01:18:43.322Z,99.99
2019-03-06T01:19:43.310Z,99.99
2019-03-06T01:20:43.305Z,99.99
2019-03-06T01:21:43.293Z,99.99
2019-03-06T01:22:43.287Z,99.99
2019-03-06T01:23:43.276Z,99.99
2019-03-06T01:24:43.270Z,99.99
2019-03-06T01:25:43.259Z,99.99
2019-03-06T01:26:43.254Z,99.99
2019-03-06T01:27:43.242Z,99.99
2019-03-06T01:28:43.236Z,99.99
2019-03-06T01:29:43.227Z,99.99
2019-03-06T01:30:43.219Z,99.99
2019-03-06T01:31:43.209Z,99.99
2019-03-06T01:32:43.207Z,99.99
2019-03-06T01:33:43.192Z,99.99
2019-03-06T01:34:43.186Z,99.99
2019-03-06T01:35:43.175Z,99.99
2019-03-06T01:36:43.169Z,99.99
2019-03-06T01:37:43.159Z,99.99
2019-03-06T01:38:43.156Z,99.99
2019-03-06T01:39:43.143Z,99.99
2019-03-06T01:40:43.135Z,99.99
2019-03-06T01:41:43.124Z,99.99
2019-03-06T01:42:43.119Z,99.99
2019-03-06T01:43:43.109Z,99.99
2019-03-06T01:44:43.102Z,99.99
2019-03-06T01:45:43.091Z,99.99
2019-03-06T01:46:43.084Z,99.99
2019-03-06T01:47:43.074Z,99.99
2019-03-06T01:48:43.067Z,99.99
2019-03-06T01:49:43.056Z,99.99
2019-03-06T01:50:43.055Z,99.99
2019-03-06T01:51:43.042Z,99.99
2019-03-06T01:52:43.034Z,99.99
2019-03-06T01:53:43.025Z,99.99
2019-03-06T01:54:43.017Z,99.99
2019-03-06T01:55:43.018Z,99.99
2019-03-06T01:56:43.000Z,99.99
2019-03-06T01:57:42.989Z,99.99
2019-03-06T01:58:42.983Z,99.99
2019-03-06T01:59:42.973Z,99.99
2019-03-06T02:00:42.970Z,99.99
2019-03-06T02:01:42.956Z,99.99
2019-03-06T02:02:42.950Z,99.99
2019-03-06T02:03:42.940Z,99.99
2019-03-06T02:04:42.933Z,99.99
2019-03-06T02:05:42.923Z,99.99
2019-03-06T02:06:42.916Z,99.99
2019-03-06T02:07:42.907Z,99.99
2019-03-06T02:08:42.902Z,99.99
2019-03-06T02:09:42.890Z,99.99
2019-03-06T02:10:42.883Z,99.99
2019-03-06T02:11:42.873Z,99.99
2019-03-06T02:12:42.867Z,99.99
2019-03-06T02:13:42.856Z,99.99
2019-03-06T02:14:42.851Z,99.99
2019-03-06T02:15:42.850Z,99.99
2019-03-06T02:16:42.835Z,99.99
2019-03-06T02:17:42.823Z,99.99
2019-03-06T02:18:42.817Z,99.99
2019-03-06T02:19:42.807Z,99.99
2019-03-06T02:20:42.801Z,99.99
2019-03-06T02:21:42.790Z,99.99
2019-03-06T02:22:42.791Z,99.99
2019-03-06T02:23:42.775Z,99.99
2019-03-06T02:24:42.768Z,99.99
2019-03-06T02:25:42.757Z,99.99
2019-03-06T02:26:42.751Z,99.99
2019-03-06T02:27:42.742Z,99.99
2019-03-06T02:28:42.735Z,99.99
2019-03-06T02:29:42.727Z,99.99
2019-03-06T02:30:42.746Z,99.99
2019-03-06T02:31:42.708Z,99.99
2019-03-06T02:32:42.701Z,99.99
2019-03-06T02:33:42.693Z,99.99
2019-03-06T02:34:42.687Z,99.99
2019-03-06T02:35:42.675Z,99.99
2019-03-06T02:36:42.669Z,99.99
2019-03-06T02:37:42.663Z,99.99
2019-03-06T02:38:42.654Z,99.99
2019-03-06T02:39:42.651Z,99.99
2019-03-06T02:40:42.637Z,99.99
2019-03-06T02:41:42.626Z,99.99
2019-03-06T02:42:42.624Z,99.99
2019-03-06T02:43:42.622Z,99.99
2019-03-06T02:44:42.611Z,99.99
2019-03-06T02:45:42.593Z,99.99
2019-03-06T02:46:42.597Z,99.99
2019-03-06T02:47:42.580Z,99.99
2019-03-06T02:48:42.575Z,99.99
2019-03-06T02:49:42.578Z,99.99
2019-03-06T02:50:42.553Z,99.99
2019-03-06T02:51:42.551Z,99.99
2019-03-06T02:52:42.537Z,99.99
2019-03-06T02:53:42.526Z,99.99
2019-03-06T02:54:42.523Z,99.99
2019-03-06T02:55:42.520Z,99.99
2019-03-06T02:56:42.505Z,99.99
2019-03-06T02:57:42.492Z,99.99
2019-03-06T02:58:44.242Z,99.99
2019-03-06T02:59:42.476Z,99.99
2019-03-06T03:00:42.469Z,99.99
2019-03-06T03:01:42.461Z,99.99
2019-03-06T03:02:42.453Z,99.99
2019-03-06T03:03:42.448Z,99.99
2019-03-06T03:04:42.434Z,99.99
2019-03-06T03:05:42.424Z,99.99
2019-03-06T03:06:42.417Z,99.99
2019-03-06T03:07:42.408Z,99.99
2019-03-06T03:08:42.406Z,99.99
2019-03-06T03:09:42.392Z,99.99
2019-03-06T03:10:42.383Z,99.99
2019-03-06T03:11:42.372Z,99.99
2019-03-06T03:12:42.366Z,99.99
2019-03-06T03:13:42.355Z,99.99
2019-03-06T03:14:42.349Z,99.99
2019-03-06T03:15:42.341Z,99.99
2019-03-06T03:16:42.331Z,99.99
2019-03-06T03:17:42.320Z,99.99
2019-03-06T03:18:42.313Z,99.99
2019-03-06T03:19:42.301Z,99.99
2019-03-06T03:20:42.302Z,99.99
2019-03-06T03:21:42.283Z,99.99
2019-03-06T03:22:42.278Z,99.99
2019-03-06T03:23:42.267Z,99.99
2019-03-06T03:24:42.258Z,99.99
2019-03-06T03:25:42.253Z,99.99
2019-03-06T03:26:42.243Z,99.99
2019-03-06T03:27:42.230Z,99.99
2019-03-06T03:28:42.223Z,99.99
2019-03-06T03:29:42.213Z,99.99
2019-03-06T03:30:42.211Z,99.99
2019-03-06T03:31:42.204Z,99.99
2019-03-06T03:32:42.189Z,99.99
2019-03-06T03:33:42.183Z,99.99
2019-03-06T03:34:42.176Z,99.99
2019-03-06T03:35:42.160Z,99.99
2019-03-06T03:36:42.157Z,99.99
2019-03-06T03:37:42.146Z,99.99
2019-03-06T03:38:42.138Z,99.99
2019-03-06T03:39:42.125Z,99.99
2019-03-06T03:40:42.119Z,99.99
2019-03-06T03:41:42.107Z,99.99
2019-03-06T03:42:42.103Z,99.99
2019-03-06T03:43:42.092Z,99.99
2019-03-06T03:44:42.089Z,99.99
2019-03-06T03:45:42.071Z,99.99
2019-03-06T03:46:42.064Z,99.99
2019-03-06T03:47:42.061Z,99.99
2019-03-06T03:48:42.048Z,99.99
2019-03-06T03:49:42.038Z,99.99
2019-03-06T03:50:42.030Z,99.99
2019-03-06T03:51:42.269Z,99.99
2019-03-06T03:52:42.017Z,99.99
2019-03-06T03:53:42.002Z,99.99
2019-03-06T03:54:41.997Z,99.99
2019-03-06T03:55:41.982Z,99.99
2019-03-06T03:56:41.975Z,99.99
2019-03-06T03:57:41.965Z,99.99
2019-03-06T03:58:41.961Z,99.99
2019-03-06T03:59:41.949Z,99.99
2019-03-06T04:00:41.940Z,99.99
2019-03-06T04:01:41.930Z,99.99
2019-03-06T04:02:41.923Z,99.99
2019-03-06T04:03:41.922Z,99.99
2019-03-06T04:04:41.917Z,99.99
2019-03-06T04:05:41.900Z,99.99
2019-03-06T04:06:41.897Z,99.99
2019-03-06T04:07:41.881Z,99.99
2019-03-06T04:08:41.869Z,99.99
2019-03-06T04:09:41.868Z,99.99
2019-03-06T04:10:41.852Z,99.99
2019-03-06T04:11:41.845Z,99.99
2019-03-06T04:12:41.854Z,99.99
2019-03-06T04:13:41.835Z,99.99
2019-03-06T04:14:41.817Z,99.99
2019-03-06T04:15:41.816Z,99.99
2019-03-06T04:16:41.800Z,99.99
2019-03-06T04:17:41.788Z,99.99
2019-03-06T04:18:41.796Z,99.99
2019-03-06T04:19:41.772Z,99.99
2019-03-06T04:20:41.765Z,99.99
2019-03-06T04:21:41.779Z,99.99
2019-03-06T04:22:41.748Z,99.99
2019-03-06T04:23:41.738Z,99.99
2019-03-06T04:24:41.743Z,99.99
2019-03-06T04:25:41.722Z,99.99
2019-03-06T04:26:41.713Z,99.99
2019-03-06T04:27:41.718Z,99.99
2019-03-06T04:28:41.697Z,99.99
2019-03-06T04:29:41.699Z,99.99
2019-03-06T04:30:41.685Z,99.99
2019-03-06T04:31:41.679Z,99.99
2019-03-06T04:32:41.662Z,99.99
2019-03-06T04:33:41.650Z,99.99
2019-03-06T04:34:41.649Z,99.99
2019-03-06T04:35:41.640Z,99.99
2019-03-06T04:36:41.642Z,99.99
2019-03-06T04:37:41.619Z,99.99
2019-03-06T04:38:43.714Z,99.99
2019-03-06T04:39:41.598Z,99.99
2019-03-06T04:40:41.589Z,99.99
2019-03-06T04:41:41.584Z,99.99
2019-03-06T04:42:41.578Z,99.99
2019-03-06T04:43:41.567Z,99.99
2019-03-06T04:44:41.705Z,99.99
2019-03-06T04:45:41.549Z,99.99
2019-03-06T04:46:41.539Z,99.99
2019-03-06T04:47:41.533Z,99.99
2019-03-06T04:48:41.522Z,99.99
2019-03-06T04:49:41.516Z,99.99
2019-03-06T04:50:41.507Z,99.99
2019-03-06T04:51:41.504Z,99.99
2019-03-06T04:52:41.494Z,99.99
2019-03-06T04:53:41.482Z,99.99
2019-03-06T04:54:41.471Z,99.99
2019-03-06T04:55:41.465Z,99.99
2019-03-06T04:56:41.453Z,99.99
2019-03-06T04:57:41.450Z,99.99
2019-03-06T04:58:41.438Z,99.99
2019-03-06T04:59:41.435Z,99.99
2019-03-06T05:00:41.421Z,99.99
2019-03-06T05:01:41.414Z,99.99
2019-03-06T05:02:41.404Z,99.99
2019-03-06T05:03:41.398Z,99.99
2019-03-06T05:04:41.386Z,99.99
2019-03-06T05:05:41.383Z,99.99
2019-03-06T05:06:41.372Z,99.99
2019-03-06T05:07:41.367Z,99.99
2019-03-06T05:08:41.353Z,99.99
2019-03-06T05:09:41.362Z,99.99
2019-03-06T05:10:41.337Z,99.99
2019-03-06T05:11:41.331Z,99.99
2019-03-06T05:12:41.320Z,99.99
2019-03-06T05:13:41.319Z,99.99
2019-03-06T05:14:41.304Z,99.99
2019-03-06T05:15:41.313Z,99.99
2019-03-06T05:16:41.287Z,99.99
2019-03-06T05:17:41.281Z,99.99
2019-03-06T05:18:41.271Z,99.99
2019-03-06T05:19:41.266Z,99.99
2019-03-06T05:20:41.272Z,99.99
2019-03-06T05:21:41.261Z,99.99
2019-03-06T05:22:41.238Z,99.99
2019-03-06T05:23:41.232Z,99.99
2019-03-06T05:24:41.221Z,99.99
2019-03-06T05:25:41.223Z,99.99
2019-03-06T05:26:41.205Z,99.99
2019-03-06T05:27:41.212Z,99.99
2019-03-06T05:28:41.189Z,99.99
2019-03-06T05:29:41.183Z,99.99
2019-03-06T05:30:41.173Z,99.99
2019-03-06T05:31:41.167Z,99.99
2019-03-06T05:32:41.159Z,99.99
2019-03-06T05:33:41.165Z,99.99
2019-03-06T05:34:41.151Z,99.99
2019-03-06T05:35:41.149Z,99.99
2019-03-06T05:36:41.125Z,99.99
2019-03-06T05:37:41.119Z,99.99
2019-03-06T05:38:41.109Z,99.99
2019-03-06T05:39:41.103Z,99.99
2019-03-06T05:40:41.110Z,99.99
2019-03-06T05:41:41.152Z,99.99
2019-03-06T05:42:41.077Z,99.99
2019-03-06T05:43:41.071Z,99.99
2019-03-06T05:44:41.063Z,99.99
2019-03-06T05:45:41.055Z,99.99
2019-03-06T05:46:41.045Z,99.99
2019-03-06T05:47:41.045Z,99.99
2019-03-06T05:48:41.033Z,99.99
2019-03-06T05:49:41.023Z,99.99
2019-03-06T05:50:41.013Z,99.99
2019-03-06T05:51:41.008Z,99.99
2019-03-06T05:52:40.996Z,99.99
2019-03-06T05:53:40.992Z,99.99
2019-03-06T05:54:40.999Z,99.99
2019-03-06T05:55:40.998Z,99.99
2019-03-06T05:56:40.966Z,99.99
2019-03-06T05:57:40.960Z,99.99
2019-03-06T05:58:40.950Z,99.99
2019-03-06T05:59:40.945Z,99.99
2019-03-06T06:00:40.936Z,99.99
2019-03-06T06:01:40.929Z,99.99
2019-03-06T06:02:40.918Z,99.99
2019-03-06T06:03:40.913Z,99.99
2019-03-06T06:04:40.903Z,99.99
2019-03-06T06:05:40.920Z,99.99
2019-03-06T06:06:40.888Z,99.99
2019-03-06T06:07:41.577Z,99.99
2019-03-06T06:08:40.871Z,99.99
2019-03-06T06:09:40.866Z,99.99
2019-03-06T06:10:40.857Z,99.99
2019-03-06T06:11:40.861Z,99.99
2019-03-06T06:12:40.854Z,99.99
2019-03-06T06:13:40.835Z,99.99
2019-03-06T06:14:40.827Z,99.99
2019-03-06T06:15:40.832Z,99.99
2019-03-06T06:16:40.815Z,99.99
2019-03-06T06:17:40.831Z,99.99
2019-03-06T06:18:40.804Z,99.99
2019-03-06T06:19:40.789Z,99.99
2019-03-06T06:20:40.780Z,99.99
2019-03-06T06:21:40.774Z,99.99
2019-03-06T06:22:40.763Z,99.99
2019-03-06T06:23:40.775Z,99.99
2019-03-06T06:24:40.752Z,99.99
2019-03-06T06:25:40.746Z,99.99
2019-03-06T06:26:40.750Z,99.99
2019-03-06T06:27:40.727Z,99.99
2019-03-06T06:28:40.717Z,99.99
2019-03-06T06:29:40.719Z,99.99
2019-03-06T06:30:40.703Z,99.99
2019-03-06T06:31:40.699Z,99.99
2019-03-06T06:32:40.704Z,99.99
2019-03-06T06:33:40.681Z,99.99
2019-03-06T06:34:40.671Z,99.99
2019-03-06T06:35:40.666Z,99.99
2019-03-06T06:36:40.655Z,99.99
2019-03-06T06:37:40.651Z,99.99
2019-03-06T06:38:40.642Z,99.99
2019-03-06T06:39:40.648Z,99.99
2019-03-06T06:40:40.640Z,99.99
2019-03-06T06:41:40.619Z,99.99
2019-03-06T06:42:40.610Z,99.99
2019-03-06T06:43:40.615Z,99.99
2019-03-06T06:44:40.593Z,99.99
2019-03-06T06:45:40.588Z,99.99
2019-03-06T06:46:40.596Z,99.99
2019-03-06T06:47:40.591Z,99.99
2019-03-06T06:48:40.562Z,99.99
2019-03-06T06:49:40.559Z,99.99
2019-03-06T06:50:40.557Z,99.99
2019-03-06T06:51:40.543Z,99.99
2019-03-06T06:52:40.538Z,99.99
2019-03-06T06:53:40.565Z,99.99
2019-03-06T06:54:40.523Z,99.99
2019-03-06T06:55:40.511Z,99.99
2019-03-06T06:56:40.500Z,99.99
2019-03-06T06:57:40.495Z,99.99
2019-03-06T06:58:40.494Z,99.99
2019-03-06T06:59:40.486Z,99.99
2019-03-06T07:00:40.487Z,99.99
2019-03-06T07:01:40.473Z,99.99
2019-03-06T07:02:40.604Z,99.99
2019-03-06T07:03:40.449Z,99.99
2019-03-06T07:04:40.448Z,99.99
2019-03-06T07:05:40.438Z,99.99
2019-03-06T07:06:40.427Z,99.99
2019-03-06T07:07:40.435Z,99.99
2019-03-06T07:08:40.413Z,99.99
2019-03-06T07:09:40.409Z,99.99
2019-03-06T07:10:40.394Z,99.99
2019-03-06T07:11:40.394Z,99.99
2019-03-06T07:12:40.394Z,99.99
2019-03-06T07:13:40.372Z,99.99
2019-03-06T07:14:40.363Z,99.99
2019-03-06T07:15:40.358Z,99.99
2019-03-06T07:16:40.347Z,99.99
2019-03-06T07:17:40.344Z,99.99
2019-03-06T07:18:40.341Z,99.99
2019-03-06T07:19:40.331Z,99.99
2019-03-06T07:20:40.317Z,99.99
2019-03-06T07:21:40.312Z,99.99
2019-03-06T07:22:40.303Z,99.99
2019-03-06T07:23:41.401Z,99.99
2019-03-06T07:24:40.287Z,99.99
2019-03-06T07:25:40.296Z,99.99
2019-03-06T07:26:40.279Z,99.99
2019-03-06T07:27:40.282Z,99.99
2019-03-06T07:28:40.257Z,99.99
2019-03-06T07:29:40.252Z,99.99
2019-03-06T07:30:40.243Z,99.99
2019-03-06T07:31:40.238Z,99.99
2019-03-06T07:32:40.227Z,99.99
2019-03-06T07:33:40.474Z,99.99
2019-03-06T07:34:40.226Z,99.99
2019-03-06T07:35:40.278Z,99.99
2019-03-06T07:36:40.220Z,99.99
2019-03-06T07:37:40.193Z,99.99
2019-03-06T07:38:40.189Z,99.99
2019-03-06T07:39:40.180Z,99.99
2019-03-06T07:40:40.169Z,99.99
2019-03-06T07:41:40.164Z,99.99
2019-03-06T07:42:40.155Z,99.99
2019-03-06T07:43:40.169Z,99.99
2019-03-06T07:44:40.142Z,99.99
2019-03-06T07:45:40.135Z,99.99
2019-03-06T07:46:40.128Z,99.99
2019-03-06T07:47:40.122Z,99.99
2019-03-06T07:48:40.118Z,99.99
2019-03-06T07:49:45.212Z,99.99
2019-03-06T07:50:40.101Z,99.99
2019-03-06T07:51:40.093Z,99.99
2019-03-06T07:52:40.086Z,99.99
2019-03-06T07:53:40.079Z,99.99
2019-03-06T07:54:40.082Z,99.99
2019-03-06T07:55:40.065Z,99.99
2019-03-06T07:56:40.084Z,99.99
2019-03-06T07:57:40.051Z,99.99
2019-03-06T07:58:40.043Z,99.99
2019-03-06T07:59:40.037Z,99.99
2019-03-06T08:00:40.028Z,99.99
2019-03-06T08:01:40.034Z,99.99
2019-03-06T08:02:40.031Z,99.99
2019-03-06T08:03:40.011Z,99.99
2019-03-06T08:04:40.000Z,99.99
2019-03-06T08:05:39.995Z,99.99
2019-03-06T08:06:39.987Z,99.99
2019-03-06T08:07:39.982Z,99.99
2019-03-06T08:08:39.981Z,99.99
2019-03-06T08:09:39.972Z,99.99
2019-03-06T08:10:39.959Z,99.99
2019-03-06T08:11:39.955Z,99.99
2019-03-06T08:12:39.948Z,99.99
2019-03-06T08:13:39.945Z,99.99
2019-03-06T08:14:39.947Z,99.99
2019-03-06T08:15:39.930Z,99.99
2019-03-06T08:16:39.924Z,99.99
2019-03-06T08:17:39.933Z,99.99
2019-03-06T08:18:39.921Z,99.99
2019-03-06T08:19:39.901Z,99.99
2019-03-06T08:20:39.997Z,99.99
2019-03-06T08:21:39.895Z,99.99
2019-03-06T08:22:39.892Z,99.99
2019-03-06T08:23:39.881Z,99.99
2019-03-06T08:24:39.894Z,99.99
2019-03-06T08:25:39.867Z,99.99
2019-03-06T08:26:39.853Z,99.99
2019-03-06T08:27:39.849Z,99.99
2019-03-06T08:28:39.840Z,99.99
2019-03-06T08:29:39.884Z,99.99
2019-03-06T08:30:39.826Z,99.99
2019-03-06T08:31:39.823Z,99.99
2019-03-06T08:32:39.819Z,99.99
2019-03-06T08:33:39.814Z,99.99
2019-03-06T08:34:39.802Z,99.99
2019-03-06T08:35:39.813Z,99.99
2019-03-06T08:36:39.790Z,99.99
2019-03-06T08:37:39.784Z,99.99
2019-03-06T08:38:39.775Z,99.99
2019-03-06T08:39:39.778Z,99.99
2019-03-06T08:40:39.770Z,99.99
2019-03-06T08:41:39.774Z,99.99
2019-03-06T08:42:39.751Z,99.99
2019-03-06T08:43:39.747Z,99.99
2019-03-06T08:44:39.736Z,99.99
2019-03-06T08:45:39.732Z,99.99
2019-03-06T08:46:39.725Z,99.99
2019-03-06T08:47:39.734Z,99.99
2019-03-06T08:48:39.711Z,99.99
2019-03-06T08:49:39.723Z,99.99
2019-03-06T08:50:39.699Z,99.99
2019-03-06T08:51:39.697Z,99.99
2019-03-06T08:52:39.687Z,99.99
2019-03-06T08:53:39.688Z,99.99
2019-03-06T08:54:39.680Z,99.99
2019-03-06T08:55:39.671Z,99.99
2019-03-06T08:56:39.666Z,99.99
2019-03-06T08:57:39.667Z,99.99
2019-03-06T08:58:39.655Z,99.99
2019-03-06T08:59:39.644Z,99.99
2019-03-06T09:00:39.640Z,99.99
2019-03-06T09:01:39.632Z,99.99
2019-03-06T09:02:39.629Z,99.99
2019-03-06T09:03:39.620Z,99.99
2019-03-06T09:04:39.616Z,99.99
2019-03-06T09:05:39.609Z,99.99
2019-03-06T09:06:39.620Z,99.99
2019-03-06T09:07:39.607Z,99.99
2019-03-06T09:08:39.593Z,99.99
2019-03-06T09:09:39.587Z,99.99
2019-03-06T09:10:39.582Z,99.99
2019-03-06T09:11:39.624Z,99.99
2019-03-06T09:12:39.582Z,99.99
2019-03-06T09:13:39.561Z,99.99
2019-03-06T09:14:39.582Z,99.99
2019-03-06T09:15:39.551Z,99.99
2019-03-06T09:16:39.545Z,99.99
2019-03-06T09:17:39.538Z,99.99
2019-03-06T09:18:39.534Z,99.99
2019-03-06T09:19:39.531Z,99.99
2019-03-06T09:20:41.089Z,99.99
2019-03-06T09:21:39.523Z,99.99
2019-03-06T09:22:39.512Z,99.99
2019-03-06T09:23:39.504Z,99.99
2019-03-06T09:24:39.500Z,99.99
2019-03-06T09:25:39.494Z,99.99
2019-03-06T09:26:39.489Z,99.99
2019-03-06T09:27:39.481Z,99.99
2019-03-06T09:28:39.477Z,99.99
2019-03-06T09:29:39.489Z,99.99
2019-03-06T09:30:39.465Z,99.99
2019-03-06T09:31:39.458Z,99.99
2019-03-06T09:32:39.460Z,99.99
2019-03-06T09:33:39.446Z,99.99
2019-03-06T09:34:39.459Z,99.99
2019-03-06T09:35:39.439Z,99.99
2019-03-06T09:36:39.435Z,99.60
2019-03-06T09:37:39.424Z,98.94
2019-03-06T09:38:39.421Z,98.46
2019-03-06T09:39:39.428Z,98.94
2019-03-06T09:40:39.409Z,99.18
2019-03-06T09:41:39.402Z,98.70
2019-03-06T09:42:39.399Z,97.85
2019-03-06T09:43:39.403Z,98.70
2019-03-06T09:44:39.390Z,97.66
2019-03-06T09:45:39.382Z,96.98
2019-03-06T09:46:39.380Z,96.32
2019-03-06T09:47:39.383Z,95.27
2019-03-06T09:48:39.376Z,94.60
2019-03-06T09:51:39.652Z,95.17
2019-03-06T09:52:39.347Z,94.56
2019-03-06T09:53:39.340Z,94.65
2019-03-06T09:54:39.337Z,93.60
2019-03-06T09:55:39.331Z,93.22
2019-03-06T09:56:39.327Z,91.88
2019-03-06T09:57:39.320Z,92.17
2019-03-06T09:58:39.318Z,91.88
2019-03-06T09:59:39.329Z,91.21
2019-03-06T10:00:39.308Z,91.78
2019-03-06T10:01:39.302Z,91.21
2019-03-06T10:02:39.298Z,90.69
2019-03-06T10:03:39.294Z,89.73
2019-03-06T10:04:39.289Z,89.25
2019-03-06T10:05:39.285Z,88.78
2019-03-06T10:06:39.281Z,88.40
2019-03-06T10:07:39.274Z,88.01
2019-03-06T10:08:39.287Z,87.54
2019-03-06T10:09:39.280Z,87.25
2019-03-06T10:10:45.961Z,87.44
2019-03-06T10:11:39.257Z,86.91
2019-03-06T10:12:47.272Z,86.72
2019-03-06T10:13:42.196Z,86.15
2019-03-06T10:14:39.246Z,85.19
2019-03-06T10:15:39.239Z,84.62
2019-03-06T10:16:39.267Z,84.72
2019-03-06T10:17:39.231Z,83.86
2019-03-06T10:18:39.229Z,84.33
2019-03-06T10:19:39.224Z,84.52
2019-03-06T10:20:39.222Z,83.42
2019-03-06T10:21:39.228Z,82.84
2019-03-06T10:22:39.220Z,82.75
2019-03-06T10:23:39.208Z,81.13
2019-03-06T10:24:39.204Z,80.27
2019-03-06T10:25:39.199Z,80.55
2019-03-06T10:26:39.210Z,78.55
2019-03-06T10:27:39.193Z,79.31
2019-03-06T10:28:39.192Z,77.40
2019-03-06T10:29:39.190Z,77.44
2019-03-06T10:30:39.185Z,76.10
2019-03-06T10:31:39.194Z,75.91
2019-03-06T10:32:39.178Z,76.00
2019-03-06T10:33:39.175Z,75.24
2019-03-06T10:34:39.186Z,74.66
2019-03-06T10:35:39.167Z,74.66
2019-03-06T10:36:39.162Z,73.52
2019-03-06T10:37:39.167Z,73.43
2019-03-06T10:38:39.156Z,73.90
2019-03-06T10:39:39.152Z,73.43
2019-03-06T10:40:39.148Z,73.23
2019-03-06T10:41:39.151Z,72.47
2019-03-06T10:42:39.167Z,72.28
2019-03-06T10:43:39.136Z,72.47
2019-03-06T10:44:39.285Z,72.75
2019-03-06T10:45:41.784Z,73.80
2019-03-06T10:46:39.129Z,73.71
2019-03-06T10:47:39.123Z,73.14
2019-03-06T10:48:39.122Z,72.47
2019-03-06T10:49:39.142Z,73.23
2019-03-06T10:50:39.127Z,72.28
2019-03-06T10:51:40.330Z,72.08
2019-03-06T10:52:39.111Z,73.43
2019-03-06T10:56:39.867Z,72.75
2019-03-06T11:09:06.975Z,70.94
2019-03-06T11:10:06.975Z,70.46
2019-03-06T11:11:06.967Z,70.75
2019-03-06T11:12:06.970Z,70.46
2019-03-06T11:13:08.480Z,70.07
2019-03-06T11:14:06.966Z,71.16
2019-03-06T11:15:06.956Z,70.97
2019-03-06T11:20:00.326Z,69.57
2019-03-06T11:22:12.604Z,69.25
2019-03-06T11:24:20.062Z,68.10
2019-03-06T11:25:20.059Z,67.91
2019-03-06T11:26:20.054Z,68.10
2019-03-06T11:27:20.052Z,68.20
2019-03-06T11:28:20.050Z,68.29
2019-03-06T11:29:20.048Z,67.91
2019-03-06T11:30:20.043Z,68.10
2019-03-06T11:35:19.820Z,66.61
2019-03-06T11:36:19.821Z,66.22
2019-03-06T11:37:19.815Z,66.32
2019-03-06T11:38:19.846Z,66.13
2019-03-06T11:39:19.809Z,66.22
2019-03-06T11:40:19.810Z,65.84
2019-03-06T11:41:19.804Z,66.51
2019-03-06T11:42:19.804Z,66.32
2019-03-06T11:43:19.799Z,66.13
2019-03-06T11:44:19.800Z,66.13
2019-03-06T11:45:19.794Z,66.13
2019-03-06T12:11:04.904Z,65.20
2019-03-06T12:12:04.904Z,64.63
2019-03-06T12:13:04.899Z,64.05
2019-03-06T12:14:04.900Z,63.16
2019-03-06T12:15:04.895Z,63.06
2019-03-06T12:16:04.906Z,63.45
2019-03-06T12:17:04.895Z,62.90
2019-03-06T12:18:04.892Z,63.19
2019-03-06T12:19:04.887Z,63.29
2019-03-06T12:20:08.080Z,63.10
2019-03-06T12:21:04.887Z,62.71
2019-03-06T12:22:04.883Z,62.62
2019-03-06T12:23:04.877Z,63.39
2019-03-06T12:24:04.877Z,62.90
2019-03-06T12:25:04.874Z,63.06
2019-03-06T12:26:04.873Z,63.19
2019-03-06T12:27:04.868Z,63.10
2019-03-06T12:28:04.868Z,63.10
2019-03-06T12:29:04.863Z,62.90
2019-03-06T12:30:04.864Z,62.90
2019-03-06T12:31:04.858Z,62.90
2019-03-06T12:32:04.859Z,63.19
2019-03-06T12:33:04.858Z,63.39
2019-03-06T12:34:04.856Z,62.90
2019-03-06T12:35:04.851Z,62.90
2019-03-06T12:36:05.737Z,62.33
2019-03-06T12:37:04.846Z,62.81
2019-03-06T12:38:04.847Z,63.19
2019-03-06T12:39:04.843Z,62.90
2019-03-06T12:41:04.844Z,62.93
2019-03-06T12:42:13.780Z,62.43
2019-03-06T12:43:04.837Z,62.81
2019-03-06T15:35:03.691Z,71.99
2019-03-06T15:36:03.593Z,73.90
2019-03-06T15:37:03.583Z,74.95
2019-03-06T15:38:03.580Z,76.10
2019-03-06T15:39:03.576Z,76.25
2019-03-06T15:40:03.573Z,76.73
2019-03-06T15:41:03.566Z,78.64
2019-03-06T15:42:03.564Z,79.50
2019-03-06T15:43:03.558Z,80.93
2019-03-06T15:44:03.557Z,81.37
2019-03-06T15:45:03.549Z,82.42
2019-03-06T15:46:03.549Z,83.76
2019-03-06T15:47:03.542Z,84.23
2019-03-06T15:48:03.540Z,85.91
2019-03-06T15:49:03.531Z,87.92
2019-03-06T15:50:03.533Z,88.11
2019-03-06T17:09:10.082Z,79.50
2019-03-06T17:10:10.079Z,79.60
2019-03-06T17:13:35.760Z,79.69
2019-03-06T17:14:35.756Z,80.17
2019-03-06T17:15:35.752Z,80.46
2019-03-06T17:16:35.748Z,80.55
2019-03-06T17:17:35.740Z,79.94
2019-03-06T17:18:35.739Z,79.85
2019-03-06T17:20:35.727Z,80.46
2019-03-06T17:21:35.725Z,80.41
2019-03-06T17:22:35.720Z,79.88
2019-03-06T17:23:35.716Z,79.88
2019-03-06T17:24:35.711Z,80.55
2019-03-06T17:25:35.710Z,80.93
2019-03-06T17:26:35.704Z,80.84
2019-03-06T17:27:35.699Z,81.18
2019-03-06T17:28:35.693Z,81.18
2019-03-06T17:29:35.692Z,81.47
2019-03-06T17:30:35.691Z,82.04
2019-03-06T17:31:35.682Z,81.95
2019-03-06T17:32:35.676Z,81.85
2019-03-06T17:33:35.673Z,81.85
2019-03-06T17:34:35.671Z,81.76
2019-03-06T17:35:35.666Z,81.37
2019-03-06T17:36:35.657Z,81.76
2019-03-06T17:37:35.656Z,81.66
2019-03-06T17:38:35.650Z,81.37
2019-03-06T17:45:28.032Z,82.81
2019-03-06T17:46:27.879Z,82.32
2019-03-06T17:47:27.872Z,82.32
2019-03-06T17:48:27.870Z,83.00
2019-03-06T17:49:27.865Z,83.00
2019-03-06T17:50:27.862Z,83.76
2019-03-06T17:51:27.855Z,83.86
2019-03-06T17:52:27.852Z,84.43
2019-03-06T17:53:27.847Z,84.72
2019-03-06T17:54:27.845Z,85.58
2019-03-06T17:56:27.833Z,85.96
2019-03-06T17:57:27.831Z,86.53
2019-03-06T17:58:27.824Z,86.53
2019-03-06T19:01:16.492Z,99.99
2019-03-06T19:15:06.812Z,99.99
2019-03-06T19:16:06.810Z,99.99
2019-03-06T19:17:06.801Z,99.99
2019-03-06T19:52:38.082Z,99.99
2019-03-06T20:08:06.923Z,99.99